sensor_id;sensor_type;location;lat;lon;timestamp;P1;durP1;ratioP1;P2;durP2;ratioP2
49296;SDS011;35163;48.878;18.040;2023-07-13T00:01:49;5.75;;;2.88;;
49296;SDS011;35163;48.878;18.040;2023-07-13T00:04:17;7.05;;;3.40;;
49296;SDS011;35163;48.878;18.040;2023-07-13T00:06:45;8.00;;;3.35;;
49296;SDS011;35163;48.878;18.040;2023-07-13T00:09:13;6.40;;;3.13;;
49296;SDS011;35163;48.878;18.040;2023-07-13T00:11:43;7.45;;;2.78;;
49296;SDS011;35163;48.878;18.040;2023-07-13T00:14:11;6.32;;;2.80;;
49296;SDS011;35163;48.878;18.040;2023-07-13T00:16:38;15.70;;;3.33;;
49296;SDS011;35163;48.878;18.040;2023-07-13T00:19:07;11.65;;;2.92;;
49296;SDS011;35163;48.878;18.040;2023-07-13T00:21:34;15.98;;;3.90;;
49296;SDS011;35163;48.878;18.040;2023-07-13T00:24:01;20.95;;;4.88;;
49296;SDS011;35163;48.878;18.040;2023-07-13T00:26:29;16.23;;;5.47;;
49296;SDS011;35163;48.878;18.040;2023-07-13T00:28:55;20.42;;;6.57;;
49296;SDS011;35163;48.878;18.040;2023-07-13T00:31:22;11.70;;;5.28;;
49296;SDS011;35163;48.878;18.040;2023-07-13T00:33:49;13.02;;;4.88;;
49296;SDS011;35163;48.878;18.040;2023-07-13T00:36:16;9.75;;;4.28;;
49296;SDS011;35163;48.878;18.040;2023-07-13T00:38:43;17.27;;;5.63;;
49296;SDS011;35163;48.878;18.040;2023-07-13T00:41:10;14.27;;;5.22;;
49296;SDS011;35163;48.878;18.040;2023-07-13T00:43:37;12.73;;;5.32;;
49296;SDS011;35163;48.878;18.040;2023-07-13T00:46:15;15.63;;;4.50;;
49296;SDS011;35163;48.878;18.040;2023-07-13T00:48:45;9.88;;;4.07;;
49296;SDS011;35163;48.878;18.040;2023-07-13T00:51:14;10.63;;;4.43;;
49296;SDS011;35163;48.878;18.040;2023-07-13T00:53:44;9.80;;;4.57;;
49296;SDS011;35163;48.878;18.040;2023-07-13T00:56:11;15.20;;;4.43;;
49296;SDS011;35163;48.878;18.040;2023-07-13T00:58:38;8.60;;;4.15;;
49296;SDS011;35163;48.878;18.040;2023-07-13T01:01:05;9.38;;;4.35;;
49296;SDS011;35163;48.878;18.040;2023-07-13T01:03:32;10.75;;;4.13;;
49296;SDS011;35163;48.878;18.040;2023-07-13T01:06:01;9.98;;;4.20;;
49296;SDS011;35163;48.878;18.040;2023-07-13T01:08:28;8.93;;;4.50;;
49296;SDS011;35163;48.878;18.040;2023-07-13T01:10:56;11.52;;;4.85;;
49296;SDS011;35163;48.878;18.040;2023-07-13T01:13:24;8.88;;;4.05;;
49296;SDS011;35163;48.878;18.040;2023-07-13T01:15:52;12.10;;;4.18;;
49296;SDS011;35163;48.878;18.040;2023-07-13T01:18:23;11.55;;;4.43;;
49296;SDS011;35163;48.878;18.040;2023-07-13T01:20:53;10.85;;;4.63;;
49296;SDS011;35163;48.878;18.040;2023-07-13T01:23:23;9.13;;;4.38;;
49296;SDS011;35163;48.878;18.040;2023-07-13T01:25:51;11.63;;;4.03;;
49296;SDS011;35163;48.878;18.040;2023-07-13T01:28:18;12.18;;;4.80;;
49296;SDS011;35163;48.878;18.040;2023-07-13T01:30:46;13.15;;;4.97;;
49296;SDS011;35163;48.878;18.040;2023-07-13T01:33:14;8.48;;;3.95;;
49296;SDS011;35163;48.878;18.040;2023-07-13T01:35:43;13.70;;;4.57;;
49296;SDS011;35163;48.878;18.040;2023-07-13T01:38:12;9.63;;;4.35;;
49296;SDS011;35163;48.878;18.040;2023-07-13T01:40:41;11.05;;;4.07;;
49296;SDS011;35163;48.878;18.040;2023-07-13T01:43:08;8.93;;;3.78;;
49296;SDS011;35163;48.878;18.040;2023-07-13T01:45:34;10.40;;;4.63;;
49296;SDS011;35163;48.878;18.040;2023-07-13T01:48:02;11.77;;;4.60;;
49296;SDS011;35163;48.878;18.040;2023-07-13T01:50:29;8.07;;;4.40;;
49296;SDS011;35163;48.878;18.040;2023-07-13T01:52:55;10.30;;;4.22;;
49296;SDS011;35163;48.878;18.040;2023-07-13T01:55:22;10.98;;;4.80;;
49296;SDS011;35163;48.878;18.040;2023-07-13T01:57:49;16.50;;;4.88;;
49296;SDS011;35163;48.878;18.040;2023-07-13T02:00:16;10.73;;;4.75;;
49296;SDS011;35163;48.878;18.040;2023-07-13T02:02:43;10.65;;;4.82;;
49296;SDS011;35163;48.878;18.040;2023-07-13T02:05:12;8.70;;;4.30;;
49296;SDS011;35163;48.878;18.040;2023-07-13T02:07:40;10.95;;;4.85;;
49296;SDS011;35163;48.878;18.040;2023-07-13T02:10:07;12.68;;;5.18;;
49296;SDS011;35163;48.878;18.040;2023-07-13T02:12:35;11.68;;;4.88;;
49296;SDS011;35163;48.878;18.040;2023-07-13T02:15:02;11.10;;;5.25;;
49296;SDS011;35163;48.878;18.040;2023-07-13T02:17:30;9.55;;;5.03;;
49296;SDS011;35163;48.878;18.040;2023-07-13T02:19:57;12.38;;;5.55;;
49296;SDS011;35163;48.878;18.040;2023-07-13T02:22:24;11.95;;;5.90;;
49296;SDS011;35163;48.878;18.040;2023-07-13T02:24:51;13.60;;;5.78;;
49296;SDS011;35163;48.878;18.040;2023-07-13T02:27:18;10.77;;;4.78;;
49296;SDS011;35163;48.878;18.040;2023-07-13T02:29:45;10.55;;;4.72;;
49296;SDS011;35163;48.878;18.040;2023-07-13T02:32:12;11.00;;;4.75;;
49296;SDS011;35163;48.878;18.040;2023-07-13T02:34:40;15.32;;;4.40;;
49296;SDS011;35163;48.878;18.040;2023-07-13T02:37:08;9.00;;;3.83;;
49296;SDS011;35163;48.878;18.040;2023-07-13T02:39:35;14.60;;;4.63;;
49296;SDS011;35163;48.878;18.040;2023-07-13T02:42:01;12.20;;;4.18;;
49296;SDS011;35163;48.878;18.040;2023-07-13T02:44:29;10.68;;;4.03;;
49296;SDS011;35163;48.878;18.040;2023-07-13T02:46:56;10.55;;;4.05;;
49296;SDS011;35163;48.878;18.040;2023-07-13T02:49:23;9.23;;;3.72;;
49296;SDS011;35163;48.878;18.040;2023-07-13T02:51:51;9.85;;;3.50;;
49296;SDS011;35163;48.878;18.040;2023-07-13T02:54:17;10.05;;;3.83;;
49296;SDS011;35163;48.878;18.040;2023-07-13T02:56:45;9.38;;;3.70;;
49296;SDS011;35163;48.878;18.040;2023-07-13T02:59:11;7.68;;;3.80;;
49296;SDS011;35163;48.878;18.040;2023-07-13T03:01:38;10.77;;;4.03;;
49296;SDS011;35163;48.878;18.040;2023-07-13T03:04:05;11.43;;;3.90;;
49296;SDS011;35163;48.878;18.040;2023-07-13T03:06:32;11.15;;;3.80;;
49296;SDS011;35163;48.878;18.040;2023-07-13T03:08:59;9.65;;;3.72;;
49296;SDS011;35163;48.878;18.040;2023-07-13T03:11:26;10.32;;;4.35;;
49296;SDS011;35163;48.878;18.040;2023-07-13T03:13:54;11.90;;;3.80;;
49296;SDS011;35163;48.878;18.040;2023-07-13T03:16:21;13.68;;;5.78;;
49296;SDS011;35163;48.878;18.040;2023-07-13T03:18:49;14.18;;;5.85;;
49296;SDS011;35163;48.878;18.040;2023-07-13T03:21:15;11.00;;;5.20;;
49296;SDS011;35163;48.878;18.040;2023-07-13T03:23:43;12.77;;;5.75;;
49296;SDS011;35163;48.878;18.040;2023-07-13T03:26:10;15.18;;;5.57;;
49296;SDS011;35163;48.878;18.040;2023-07-13T03:28:45;12.32;;;5.78;;
49296;SDS011;35163;48.878;18.040;2023-07-13T03:31:14;12.85;;;5.93;;
49296;SDS011;35163;48.878;18.040;2023-07-13T03:33:43;14.98;;;5.35;;
49296;SDS011;35163;48.878;18.040;2023-07-13T03:36:12;16.38;;;5.10;;
49296;SDS011;35163;48.878;18.040;2023-07-13T03:38:40;13.00;;;5.80;;
49296;SDS011;35163;48.878;18.040;2023-07-13T03:41:07;17.67;;;6.13;;
49296;SDS011;35163;48.878;18.040;2023-07-13T03:43:34;14.23;;;5.97;;
49296;SDS011;35163;48.878;18.040;2023-07-13T03:46:00;12.70;;;6.43;;
49296;SDS011;35163;48.878;18.040;2023-07-13T03:48:27;11.80;;;5.63;;
49296;SDS011;35163;48.878;18.040;2023-07-13T03:50:54;12.35;;;5.00;;
49296;SDS011;35163;48.878;18.040;2023-07-13T03:53:20;13.77;;;5.65;;
49296;SDS011;35163;48.878;18.040;2023-07-13T03:55:47;11.68;;;6.03;;
49296;SDS011;35163;48.878;18.040;2023-07-13T04:01:12;11.55;;;5.45;;
49296;SDS011;35163;48.878;18.040;2023-07-13T04:03:39;11.02;;;5.45;;
49296;SDS011;35163;48.878;18.040;2023-07-13T04:06:08;9.27;;;4.72;;
49296;SDS011;35163;48.878;18.040;2023-07-13T04:11:08;11.43;;;5.07;;
49296;SDS011;35163;48.878;18.040;2023-07-13T04:13:35;15.70;;;5.50;;
49296;SDS011;35163;48.878;18.040;2023-07-13T04:16:02;10.75;;;5.07;;
49296;SDS011;35163;48.878;18.040;2023-07-13T04:18:29;10.88;;;5.25;;
49296;SDS011;35163;48.878;18.040;2023-07-13T04:20:55;10.38;;;4.43;;
49296;SDS011;35163;48.878;18.040;2023-07-13T04:23:22;14.02;;;5.05;;
49296;SDS011;35163;48.878;18.040;2023-07-13T04:25:51;17.25;;;4.97;;
49296;SDS011;35163;48.878;18.040;2023-07-13T04:28:23;12.52;;;4.82;;
49296;SDS011;35163;48.878;18.040;2023-07-13T04:30:50;8.65;;;4.55;;
49296;SDS011;35163;48.878;18.040;2023-07-13T04:33:17;9.63;;;4.72;;
49296;SDS011;35163;48.878;18.040;2023-07-13T04:35:44;10.40;;;4.60;;
49296;SDS011;35163;48.878;18.040;2023-07-13T04:38:13;10.88;;;4.13;;
49296;SDS011;35163;48.878;18.040;2023-07-13T04:40:47;10.25;;;4.18;;
49296;SDS011;35163;48.878;18.040;2023-07-13T04:43:14;8.98;;;4.25;;
49296;SDS011;35163;48.878;18.040;2023-07-13T04:45:41;9.85;;;3.65;;
49296;SDS011;35163;48.878;18.040;2023-07-13T04:48:07;9.23;;;4.57;;
49296;SDS011;35163;48.878;18.040;2023-07-13T04:50:37;10.95;;;4.38;;
49296;SDS011;35163;48.878;18.040;2023-07-13T04:53:04;9.55;;;4.25;;
49296;SDS011;35163;48.878;18.040;2023-07-13T04:55:32;12.23;;;4.80;;
49296;SDS011;35163;48.878;18.040;2023-07-13T04:57:59;11.98;;;4.70;;
49296;SDS011;35163;48.878;18.040;2023-07-13T05:00:26;11.10;;;4.18;;
49296;SDS011;35163;48.878;18.040;2023-07-13T05:02:54;12.50;;;4.45;;
49296;SDS011;35163;48.878;18.040;2023-07-13T05:05:22;9.20;;;4.20;;
49296;SDS011;35163;48.878;18.040;2023-07-13T05:07:51;18.58;;;4.22;;
49296;SDS011;35163;48.878;18.040;2023-07-13T05:10:18;19.00;;;4.25;;
49296;SDS011;35163;48.878;18.040;2023-07-13T05:12:45;12.75;;;4.53;;
49296;SDS011;35163;48.878;18.040;2023-07-13T05:15:12;12.13;;;4.28;;
49296;SDS011;35163;48.878;18.040;2023-07-13T05:17:39;10.75;;;3.90;;
49296;SDS011;35163;48.878;18.040;2023-07-13T05:20:07;9.95;;;3.95;;
49296;SDS011;35163;48.878;18.040;2023-07-13T05:22:35;13.10;;;3.97;;
49296;SDS011;35163;48.878;18.040;2023-07-13T05:25:04;19.40;;;3.90;;
49296;SDS011;35163;48.878;18.040;2023-07-13T05:27:32;9.05;;;3.33;;
49296;SDS011;35163;48.878;18.040;2023-07-13T05:30:00;11.98;;;3.80;;
49296;SDS011;35163;48.878;18.040;2023-07-13T05:32:27;12.95;;;3.17;;
49296;SDS011;35163;48.878;18.040;2023-07-13T05:34:54;12.50;;;4.15;;
49296;SDS011;35163;48.878;18.040;2023-07-13T05:37:20;11.50;;;4.03;;
49296;SDS011;35163;48.878;18.040;2023-07-13T05:39:47;8.27;;;3.15;;
49296;SDS011;35163;48.878;18.040;2023-07-13T05:42:14;7.85;;;2.90;;
49296;SDS011;35163;48.878;18.040;2023-07-13T05:44:41;6.20;;;2.58;;
49296;SDS011;35163;48.878;18.040;2023-07-13T05:47:07;8.45;;;3.10;;
49296;SDS011;35163;48.878;18.040;2023-07-13T05:49:34;8.27;;;2.70;;
49296;SDS011;35163;48.878;18.040;2023-07-13T05:52:01;7.65;;;3.10;;
49296;SDS011;35163;48.878;18.040;2023-07-13T05:54:28;8.93;;;2.83;;
49296;SDS011;35163;48.878;18.040;2023-07-13T05:56:55;8.52;;;2.35;;
49296;SDS011;35163;48.878;18.040;2023-07-13T05:59:21;6.68;;;2.78;;
49296;SDS011;35163;48.878;18.040;2023-07-13T06:01:48;6.57;;;2.63;;
49296;SDS011;35163;48.878;18.040;2023-07-13T06:04:16;4.90;;;2.60;;
49296;SDS011;35163;48.878;18.040;2023-07-13T06:06:42;5.88;;;2.80;;
49296;SDS011;35163;48.878;18.040;2023-07-13T06:09:09;10.80;;;2.72;;
49296;SDS011;35163;48.878;18.040;2023-07-13T06:11:36;5.90;;;2.40;;
49296;SDS011;35163;48.878;18.040;2023-07-13T06:14:02;6.78;;;2.83;;
49296;SDS011;35163;48.878;18.040;2023-07-13T06:16:30;8.73;;;2.72;;
49296;SDS011;35163;48.878;18.040;2023-07-13T06:18:57;8.98;;;2.92;;
49296;SDS011;35163;48.878;18.040;2023-07-13T06:21:23;6.57;;;2.58;;
49296;SDS011;35163;48.878;18.040;2023-07-13T06:23:51;6.80;;;2.58;;
49296;SDS011;35163;48.878;18.040;2023-07-13T06:26:18;7.57;;;2.50;;
49296;SDS011;35163;48.878;18.040;2023-07-13T06:28:46;5.00;;;2.25;;
49296;SDS011;35163;48.878;18.040;2023-07-13T06:31:13;5.60;;;2.22;;
49296;SDS011;35163;48.878;18.040;2023-07-13T06:33:41;7.43;;;2.65;;
49296;SDS011;35163;48.878;18.040;2023-07-13T06:36:10;6.18;;;2.47;;
49296;SDS011;35163;48.878;18.040;2023-07-13T06:38:37;6.38;;;2.50;;
49296;SDS011;35163;48.878;18.040;2023-07-13T06:41:12;5.15;;;2.70;;
49296;SDS011;35163;48.878;18.040;2023-07-13T06:43:39;9.25;;;2.58;;
49296;SDS011;35163;48.878;18.040;2023-07-13T06:46:06;7.30;;;2.60;;
49296;SDS011;35163;48.878;18.040;2023-07-13T06:48:33;13.23;;;3.35;;
49296;SDS011;35163;48.878;18.040;2023-07-13T06:50:59;9.13;;;2.90;;
49296;SDS011;35163;48.878;18.040;2023-07-13T06:53:28;7.53;;;3.13;;
49296;SDS011;35163;48.878;18.040;2023-07-13T06:55:55;9.23;;;3.28;;
49296;SDS011;35163;48.878;18.040;2023-07-13T06:58:22;9.95;;;3.30;;
49296;SDS011;35163;48.878;18.040;2023-07-13T07:00:52;14.80;;;3.60;;
49296;SDS011;35163;48.878;18.040;2023-07-13T07:03:19;8.32;;;3.13;;
49296;SDS011;35163;48.878;18.040;2023-07-13T07:05:46;5.20;;;2.40;;
49296;SDS011;35163;48.878;18.040;2023-07-13T07:08:13;5.75;;;2.35;;
49296;SDS011;35163;48.878;18.040;2023-07-13T07:10:40;7.80;;;2.40;;
49296;SDS011;35163;48.878;18.040;2023-07-13T07:13:07;8.05;;;2.72;;
49296;SDS011;35163;48.878;18.040;2023-07-13T07:15:34;6.57;;;2.90;;
49296;SDS011;35163;48.878;18.040;2023-07-13T07:18:01;6.93;;;2.90;;
49296;SDS011;35163;48.878;18.040;2023-07-13T07:20:28;11.30;;;2.97;;
49296;SDS011;35163;48.878;18.040;2023-07-13T07:22:57;8.77;;;3.20;;
49296;SDS011;35163;48.878;18.040;2023-07-13T07:25:24;9.35;;;2.83;;
49296;SDS011;35163;48.878;18.040;2023-07-13T07:27:50;6.75;;;2.97;;
49296;SDS011;35163;48.878;18.040;2023-07-13T07:30:20;9.50;;;2.90;;
49296;SDS011;35163;48.878;18.040;2023-07-13T07:32:49;7.03;;;3.10;;
49296;SDS011;35163;48.878;18.040;2023-07-13T07:35:19;9.18;;;3.38;;
49296;SDS011;35163;48.878;18.040;2023-07-13T07:37:46;6.07;;;3.13;;
49296;SDS011;35163;48.878;18.040;2023-07-13T07:40:16;8.43;;;3.60;;
49296;SDS011;35163;48.878;18.040;2023-07-13T07:42:47;7.28;;;3.38;;
49296;SDS011;35163;48.878;18.040;2023-07-13T07:45:14;7.07;;;2.97;;
49296;SDS011;35163;48.878;18.040;2023-07-13T07:47:41;11.73;;;3.38;;
49296;SDS011;35163;48.878;18.040;2023-07-13T07:50:08;9.27;;;3.90;;
49296;SDS011;35163;48.878;18.040;2023-07-13T07:52:35;8.02;;;3.58;;
49296;SDS011;35163;48.878;18.040;2023-07-13T07:55:03;7.95;;;3.50;;
49296;SDS011;35163;48.878;18.040;2023-07-13T07:57:35;7.60;;;3.28;;
49296;SDS011;35163;48.878;18.040;2023-07-13T08:00:05;9.45;;;3.30;;
49296;SDS011;35163;48.878;18.040;2023-07-13T08:02:35;8.48;;;3.20;;
49296;SDS011;35163;48.878;18.040;2023-07-13T08:05:05;7.00;;;3.00;;
49296;SDS011;35163;48.878;18.040;2023-07-13T08:07:35;7.05;;;3.35;;
49296;SDS011;35163;48.878;18.040;2023-07-13T08:10:03;5.55;;;2.88;;
49296;SDS011;35163;48.878;18.040;2023-07-13T08:12:33;7.53;;;3.25;;
49296;SDS011;35163;48.878;18.040;2023-07-13T08:15:06;6.97;;;3.75;;
49296;SDS011;35163;48.878;18.040;2023-07-13T08:17:37;9.95;;;3.78;;
49296;SDS011;35163;48.878;18.040;2023-07-13T08:20:04;9.50;;;3.67;;
49296;SDS011;35163;48.878;18.040;2023-07-13T08:22:31;8.98;;;3.45;;
49296;SDS011;35163;48.878;18.040;2023-07-13T08:24:59;8.07;;;4.22;;
49296;SDS011;35163;48.878;18.040;2023-07-13T08:27:26;10.50;;;4.00;;
49296;SDS011;35163;48.878;18.040;2023-07-13T08:29:54;10.38;;;4.10;;
49296;SDS011;35163;48.878;18.040;2023-07-13T08:32:21;8.80;;;4.45;;
49296;SDS011;35163;48.878;18.040;2023-07-13T08:34:49;11.13;;;4.20;;
49296;SDS011;35163;48.878;18.040;2023-07-13T08:37:17;8.02;;;3.88;;
49296;SDS011;35163;48.878;18.040;2023-07-13T08:39:44;7.60;;;4.15;;
49296;SDS011;35163;48.878;18.040;2023-07-13T08:47:57;8.48;;;4.28;;
49296;SDS011;35163;48.878;18.040;2023-07-13T08:50:30;9.73;;;4.40;;
49296;SDS011;35163;48.878;18.040;2023-07-13T08:53:19;9.95;;;3.95;;
49296;SDS011;35163;48.878;18.040;2023-07-13T08:55:48;7.95;;;3.90;;
49296;SDS011;35163;48.878;18.040;2023-07-13T08:58:25;8.20;;;3.90;;
49296;SDS011;35163;48.878;18.040;2023-07-13T09:00:59;11.90;;;3.47;;
49296;SDS011;35163;48.878;18.040;2023-07-13T09:03:29;4.30;;;2.53;;
49296;SDS011;35163;48.878;18.040;2023-07-13T09:06:01;5.57;;;3.00;;
49296;SDS011;35163;48.878;18.040;2023-07-13T09:13:50;7.30;;;3.53;;
49296;SDS011;35163;48.878;18.040;2023-07-13T09:16:23;7.88;;;3.30;;
49296;SDS011;35163;48.878;18.040;2023-07-13T09:18:51;4.85;;;2.83;;
49296;SDS011;35163;48.878;18.040;2023-07-13T09:21:23;8.95;;;2.95;;
49296;SDS011;35163;48.878;18.040;2023-07-13T09:23:59;5.45;;;2.90;;
49296;SDS011;35163;48.878;18.040;2023-07-13T09:26:47;7.13;;;3.10;;
49296;SDS011;35163;48.878;18.040;2023-07-13T09:29:17;6.90;;;3.13;;
49296;SDS011;35163;48.878;18.040;2023-07-13T09:31:53;7.25;;;3.55;;
49296;SDS011;35163;48.878;18.040;2023-07-13T09:34:27;8.20;;;4.03;;
49296;SDS011;35163;48.878;18.040;2023-07-13T09:36:56;8.15;;;4.05;;
49296;SDS011;35163;48.878;18.040;2023-07-13T09:39:27;8.88;;;4.03;;
49296;SDS011;35163;48.878;18.040;2023-07-13T09:44:39;6.82;;;3.80;;
49296;SDS011;35163;48.878;18.040;2023-07-13T09:47:17;7.20;;;3.60;;
49296;SDS011;35163;48.878;18.040;2023-07-13T09:49:53;7.35;;;3.60;;
49296;SDS011;35163;48.878;18.040;2023-07-13T09:52:25;6.25;;;3.60;;
49296;SDS011;35163;48.878;18.040;2023-07-13T09:54:54;9.02;;;3.75;;
49296;SDS011;35163;48.878;18.040;2023-07-13T09:57:27;6.28;;;3.55;;
49296;SDS011;35163;48.878;18.040;2023-07-13T10:00:20;7.95;;;4.07;;
49296;SDS011;35163;48.878;18.040;2023-07-13T10:02:57;9.02;;;3.70;;
49296;SDS011;35163;48.878;18.040;2023-07-13T10:05:26;8.32;;;4.15;;
49296;SDS011;35163;48.878;18.040;2023-07-13T10:07:53;8.13;;;4.25;;
49296;SDS011;35163;48.878;18.040;2023-07-13T10:10:22;9.02;;;3.83;;
49296;SDS011;35163;48.878;18.040;2023-07-13T10:12:49;11.30;;;4.13;;
49296;SDS011;35163;48.878;18.040;2023-07-13T10:15:22;8.02;;;4.10;;
49296;SDS011;35163;48.878;18.040;2023-07-13T10:17:53;7.53;;;3.90;;
49296;SDS011;35163;48.878;18.040;2023-07-13T10:20:22;7.40;;;3.65;;
49296;SDS011;35163;48.878;18.040;2023-07-13T10:25:20;7.82;;;3.92;;
49296;SDS011;35163;48.878;18.040;2023-07-13T10:27:52;8.57;;;4.15;;
49296;SDS011;35163;48.878;18.040;2023-07-13T10:30:25;9.70;;;4.57;;
49296;SDS011;35163;48.878;18.040;2023-07-13T10:32:58;9.20;;;3.92;;
49296;SDS011;35163;48.878;18.040;2023-07-13T10:35:29;8.68;;;4.10;;
49296;SDS011;35163;48.878;18.040;2023-07-13T10:37:58;8.00;;;4.07;;
49296;SDS011;35163;48.878;18.040;2023-07-13T10:40:29;9.55;;;4.32;;
49296;SDS011;35163;48.878;18.040;2023-07-13T10:43:07;9.80;;;4.70;;
49296;SDS011;35163;48.878;18.040;2023-07-13T10:45:41;10.15;;;4.53;;
49296;SDS011;35163;48.878;18.040;2023-07-13T10:48:09;9.65;;;4.53;;
49296;SDS011;35163;48.878;18.040;2023-07-13T10:50:43;6.93;;;3.97;;
49296;SDS011;35163;48.878;18.040;2023-07-13T10:53:27;7.32;;;4.07;;
49296;SDS011;35163;48.878;18.040;2023-07-13T10:55:58;8.52;;;4.10;;
49296;SDS011;35163;48.878;18.040;2023-07-13T10:58:33;7.85;;;4.20;;
49296;SDS011;35163;48.878;18.040;2023-07-13T11:01:09;7.78;;;4.22;;
49296;SDS011;35163;48.878;18.040;2023-07-13T11:06:17;8.32;;;4.35;;
49296;SDS011;35163;48.878;18.040;2023-07-13T11:08:53;9.68;;;4.65;;
49296;SDS011;35163;48.878;18.040;2023-07-13T11:18:51;9.40;;;5.10;;
49296;SDS011;35163;48.878;18.040;2023-07-13T11:21:34;8.82;;;4.60;;
49296;SDS011;35163;48.878;18.040;2023-07-13T11:24:22;8.80;;;4.65;;
49296;SDS011;35163;48.878;18.040;2023-07-13T11:29:25;8.18;;;4.90;;
49296;SDS011;35163;48.878;18.040;2023-07-13T11:32:01;7.38;;;4.65;;
49296;SDS011;35163;48.878;18.040;2023-07-13T11:34:53;9.20;;;5.05;;
49296;SDS011;35163;48.878;18.040;2023-07-13T11:37:21;8.45;;;4.95;;
49296;SDS011;35163;48.878;18.040;2023-07-13T11:39:49;10.57;;;4.82;;
49296;SDS011;35163;48.878;18.040;2023-07-13T11:42:18;9.73;;;4.97;;
49296;SDS011;35163;48.878;18.040;2023-07-13T11:44:48;9.65;;;4.63;;
49296;SDS011;35163;48.878;18.040;2023-07-13T11:47:39;8.27;;;4.75;;
49296;SDS011;35163;48.878;18.040;2023-07-13T11:50:16;8.40;;;4.80;;
49296;SDS011;35163;48.878;18.040;2023-07-13T11:52:45;11.02;;;5.47;;
49296;SDS011;35163;48.878;18.040;2023-07-13T11:55:18;10.68;;;4.97;;
49296;SDS011;35163;48.878;18.040;2023-07-13T11:57:53;10.88;;;5.20;;
49296;SDS011;35163;48.878;18.040;2023-07-13T12:00:31;7.68;;;4.65;;
49296;SDS011;35163;48.878;18.040;2023-07-13T12:03:00;10.63;;;5.05;;
49296;SDS011;35163;48.878;18.040;2023-07-13T12:05:31;7.85;;;4.72;;
49296;SDS011;35163;48.878;18.040;2023-07-13T12:07:58;11.45;;;5.65;;
49296;SDS011;35163;48.878;18.040;2023-07-13T12:12:57;8.40;;;4.70;;
49296;SDS011;35163;48.878;18.040;2023-07-13T12:15:28;10.25;;;5.20;;
49296;SDS011;35163;48.878;18.040;2023-07-13T12:18:13;9.20;;;5.32;;
49296;SDS011;35163;48.878;18.040;2023-07-13T12:20:49;8.90;;;4.85;;
49296;SDS011;35163;48.878;18.040;2023-07-13T12:25:52;9.43;;;5.22;;
49296;SDS011;35163;48.878;18.040;2023-07-13T12:28:20;9.05;;;4.95;;
49296;SDS011;35163;48.878;18.040;2023-07-13T12:30:49;15.68;;;5.20;;
49296;SDS011;35163;48.878;18.040;2023-07-13T12:33:16;9.65;;;5.45;;
49296;SDS011;35163;48.878;18.040;2023-07-13T12:35:47;13.57;;;5.57;;
49296;SDS011;35163;48.878;18.040;2023-07-13T12:38:16;10.43;;;5.35;;
49296;SDS011;35163;48.878;18.040;2023-07-13T12:40:43;8.98;;;4.35;;
49296;SDS011;35163;48.878;18.040;2023-07-13T12:43:13;7.65;;;4.68;;
49296;SDS011;35163;48.878;18.040;2023-07-13T12:45:56;6.63;;;3.83;;
49296;SDS011;35163;48.878;18.040;2023-07-13T12:48:37;7.50;;;3.70;;
49296;SDS011;35163;48.878;18.040;2023-07-13T12:51:15;8.52;;;3.40;;
49296;SDS011;35163;48.878;18.040;2023-07-13T12:53:47;7.15;;;3.50;;
49296;SDS011;35163;48.878;18.040;2023-07-13T12:56:23;8.30;;;4.53;;
49296;SDS011;35163;48.878;18.040;2023-07-13T12:58:56;7.30;;;4.20;;
49296;SDS011;35163;48.878;18.040;2023-07-13T13:01:28;6.57;;;3.95;;
49296;SDS011;35163;48.878;18.040;2023-07-13T13:04:00;8.05;;;4.10;;
49296;SDS011;35163;48.878;18.040;2023-07-13T13:06:33;6.82;;;4.07;;
49296;SDS011;35163;48.878;18.040;2023-07-13T13:09:02;7.85;;;4.00;;
49296;SDS011;35163;48.878;18.040;2023-07-13T13:11:30;8.52;;;4.03;;
49296;SDS011;35163;48.878;18.040;2023-07-13T13:13:58;7.30;;;4.30;;
49296;SDS011;35163;48.878;18.040;2023-07-13T13:16:32;6.13;;;3.50;;
49296;SDS011;35163;48.878;18.040;2023-07-13T13:19:19;6.55;;;3.60;;
49296;SDS011;35163;48.878;18.040;2023-07-13T13:21:51;8.82;;;4.15;;
49296;SDS011;35163;48.878;18.040;2023-07-13T13:24:21;8.02;;;3.78;;
49296;SDS011;35163;48.878;18.040;2023-07-13T13:26:49;11.65;;;4.07;;
49296;SDS011;35163;48.878;18.040;2023-07-13T13:29:21;8.07;;;3.90;;
49296;SDS011;35163;48.878;18.040;2023-07-13T13:31:52;12.57;;;4.60;;
49296;SDS011;35163;48.878;18.040;2023-07-13T13:34:20;11.27;;;4.72;;
49296;SDS011;35163;48.878;18.040;2023-07-13T13:36:50;9.23;;;4.18;;
49296;SDS011;35163;48.878;18.040;2023-07-13T13:39:28;8.73;;;4.57;;
49296;SDS011;35163;48.878;18.040;2023-07-13T13:41:59;7.75;;;4.13;;
49296;SDS011;35163;48.878;18.040;2023-07-13T13:44:26;7.75;;;3.60;;
49296;SDS011;35163;48.878;18.040;2023-07-13T13:46:53;8.10;;;3.85;;
49296;SDS011;35163;48.878;18.040;2023-07-13T13:49:23;7.63;;;3.92;;
49296;SDS011;35163;48.878;18.040;2023-07-13T13:51:52;7.68;;;3.78;;
49296;SDS011;35163;48.878;18.040;2023-07-13T13:54:20;7.80;;;3.92;;
49296;SDS011;35163;48.878;18.040;2023-07-13T13:56:48;8.35;;;3.97;;
49296;SDS011;35163;48.878;18.040;2023-07-13T13:59:16;6.60;;;3.13;;
49296;SDS011;35163;48.878;18.040;2023-07-13T14:01:44;8.77;;;3.42;;
49296;SDS011;35163;48.878;18.040;2023-07-13T14:04:16;7.05;;;3.60;;
49296;SDS011;35163;48.878;18.040;2023-07-13T14:06:45;9.07;;;3.90;;
49296;SDS011;35163;48.878;18.040;2023-07-13T14:09:16;7.50;;;3.30;;
49296;SDS011;35163;48.878;18.040;2023-07-13T14:11:46;8.60;;;4.03;;
49296;SDS011;35163;48.878;18.040;2023-07-13T14:14:33;7.75;;;3.80;;
49296;SDS011;35163;48.878;18.040;2023-07-13T14:16:59;8.18;;;3.95;;
49296;SDS011;35163;48.878;18.040;2023-07-13T14:19:26;12.48;;;4.18;;
49296;SDS011;35163;48.878;18.040;2023-07-13T14:21:54;8.57;;;4.45;;
49296;SDS011;35163;48.878;18.040;2023-07-13T14:24:21;9.07;;;4.50;;
49296;SDS011;35163;48.878;18.040;2023-07-13T14:26:47;8.77;;;4.45;;
49296;SDS011;35163;48.878;18.040;2023-07-13T14:29:16;12.15;;;4.35;;
49296;SDS011;35163;48.878;18.040;2023-07-13T14:31:49;8.52;;;4.55;;
49296;SDS011;35163;48.878;18.040;2023-07-13T14:34:16;8.45;;;3.78;;
49296;SDS011;35163;48.878;18.040;2023-07-13T14:36:44;9.30;;;4.15;;
49296;SDS011;35163;48.878;18.040;2023-07-13T14:39:18;9.13;;;4.50;;
49296;SDS011;35163;48.878;18.040;2023-07-13T14:41:48;7.95;;;4.07;;
49296;SDS011;35163;48.878;18.040;2023-07-13T14:44:21;6.28;;;3.72;;
49296;SDS011;35163;48.878;18.040;2023-07-13T14:46:50;13.05;;;4.75;;
49296;SDS011;35163;48.878;18.040;2023-07-13T14:49:25;11.98;;;3.88;;
49296;SDS011;35163;48.878;18.040;2023-07-13T14:51:58;9.60;;;4.15;;
49296;SDS011;35163;48.878;18.040;2023-07-13T14:54:27;11.65;;;4.30;;
49296;SDS011;35163;48.878;18.040;2023-07-13T14:56:54;26.65;;;15.98;;
49296;SDS011;35163;48.878;18.040;2023-07-13T14:59:21;32.72;;;22.50;;
49296;SDS011;35163;48.878;18.040;2023-07-13T15:01:49;15.73;;;7.38;;
49296;SDS011;35163;48.878;18.040;2023-07-13T15:04:16;13.43;;;4.85;;
49296;SDS011;35163;48.878;18.040;2023-07-13T15:07:18;8.80;;;4.57;;
49296;SDS011;35163;48.878;18.040;2023-07-13T15:09:39;8.57;;;4.18;;
49296;SDS011;35163;48.878;18.040;2023-07-13T15:12:06;9.95;;;4.43;;
49296;SDS011;35163;48.878;18.040;2023-07-13T15:14:33;7.18;;;3.55;;
49296;SDS011;35163;48.878;18.040;2023-07-13T15:17:00;7.70;;;3.42;;
49296;SDS011;35163;48.878;18.040;2023-07-13T15:19:27;6.70;;;3.70;;
49296;SDS011;35163;48.878;18.040;2023-07-13T15:21:55;8.57;;;3.90;;